sensor_id;sensor_type;location;lat;lon;timestamp;pressure;altitude;pressure_sealevel;temperature;humidity
71956;BME280;59829;50.562;6.258;2023-05-08T00:10:27;96132.78;;;14.81;100.00
71956;BME280;59829;50.562;6.258;2023-05-08T00:40:28;96121.69;;;14.70;100.00
71956;BME280;59829;50.562;6.258;2023-05-08T01:11:17;96114.88;;;14.79;100.00
71956;BME280;59829;50.562;6.258;2023-05-08T01:41:06;96134.69;;;14.78;100.00
71956;BME280;59829;50.562;6.258;2023-05-08T02:11:07;96150.94;;;14.89;100.00
71956;BME280;59829;50.562;6.258;2023-05-08T02:41:11;96152.84;;;14.96;100.00
71956;BME280;59829;50.562;6.258;2023-05-08T03:11:19;96151.75;;;14.99;100.00
71956;BME280;59829;50.562;6.258;2023-05-08T03:41:21;96144.16;;;14.97;100.00
71956;BME280;59829;50.562;6.258;2023-05-08T04:41:30;96136.31;;;14.80;100.00
71956;BME280;59829;50.562;6.258;2023-05-08T05:11:31;96170.03;;;14.49;100.00
71956;BME280;59829;50.562;6.258;2023-05-08T05:41:31;96194.47;;;14.45;100.00
71956;BME280;59829;50.562;6.258;2023-05-08T06:11:32;96207.44;;;14.72;100.00
71956;BME280;59829;50.562;6.258;2023-05-08T06:41:32;96219.91;;;14.87;100.00
71956;BME280;59829;50.562;6.258;2023-05-08T07:11:33;96230.03;;;15.17;100.00
71956;BME280;59829;50.562;6.258;2023-05-08T07:41:36;96241.84;;;15.57;100.00
71956;BME280;59829;50.562;6.258;2023-05-08T08:11:38;96243.66;;;16.11;100.00
71956;BME280;59829;50.562;6.258;2023-05-08T08:41:38;96237.16;;;16.61;100.00
71956;BME280;59829;50.562;6.258;2023-05-08T09:11:39;96237.22;;;17.04;100.00
71956;BME280;59829;50.562;6.258;2023-05-08T09:41:55;96233.97;;;17.02;100.00
71956;BME280;59829;50.562;6.258;2023-05-08T10:11:56;96219.38;;;17.19;100.00
71956;BME280;59829;50.562;6.258;2023-05-08T10:41:57;96218.09;;;17.57;100.00
71956;BME280;59829;50.562;6.258;2023-05-08T11:12:06;96203.97;;;17.77;98.77
71956;BME280;59829;50.562;6.258;2023-05-08T12:12:37;96199.97;;;17.57;95.57
71956;BME280;59829;50.562;6.258;2023-05-08T13:12:42;96179.09;;;18.17;100.00
71956;BME280;59829;50.562;6.258;2023-05-08T13:42:42;96164.16;;;17.95;100.00
71956;BME280;59829;50.562;6.258;2023-05-08T14:12:44;96171.06;;;17.36;100.00
71956;BME280;59829;50.562;6.258;2023-05-08T14:42:45;96181.69;;;16.99;100.00
71956;BME280;59829;50.562;6.258;2023-05-08T15:12:45;96172.78;;;16.93;100.00
71956;BME280;59829;50.562;6.258;2023-05-08T15:42:46;96156.13;;;16.96;100.00
71956;BME280;59829;50.562;6.258;2023-05-08T16:12:46;96142.44;;;17.03;100.00
71956;BME280;59829;50.562;6.258;2023-05-08T16:42:46;96142.06;;;16.98;100.00
71956;BME280;59829;50.562;6.258;2023-05-08T17:12:47;96145.59;;;16.89;100.00
71956;BME280;59829;50.562;6.258;2023-05-08T17:42:48;96142.28;;;16.79;100.00
71956;BME280;59829;50.562;6.258;2023-05-08T18:12:48;96143.53;;;16.75;100.00
71956;BME280;59829;50.562;6.258;2023-05-08T18:42:48;96124.34;;;16.59;100.00
71956;BME280;59829;50.562;6.258;2023-05-08T19:12:48;96109.00;;;16.40;100.00
71956;BME280;59829;50.562;6.258;2023-05-08T19:42:49;96126.38;;;16.12;100.00
71956;BME280;59829;50.562;6.258;2023-05-08T20:12:50;96134.44;;;15.91;100.00
71956;BME280;59829;50.562;6.258;2023-05-08T20:42:50;96127.28;;;15.58;100.00
71956;BME280;59829;50.562;6.258;2023-05-08T21:12:50;96110.16;;;15.57;100.00
71956;BME280;59829;50.562;6.258;2023-05-08T21:42:51;96083.69;;;15.55;100.00
71956;BME280;59829;50.562;6.258;2023-05-08T22:12:51;96063.53;;;15.41;100.00
71956;BME280;59829;50.562;6.258;2023-05-08T22:42:52;96038.00;;;15.37;100.00
71956;BME280;59829;50.562;6.258;2023-05-08T23:12:54;96004.81;;;15.43;100.00
71956;BME280;59829;50.562;6.258;2023-05-08T23:42:55;95972.00;;;15.35;100.00
